sensor_id;sensor_type;location;lat;lon;timestamp;pressure;altitude;pressure_sealevel;temperature;humidity
74790;BME280;63318;52.406;13.416;2023-12-14T00:01:19;100221.64;;;4.47;94.83
74790;BME280;63318;52.406;13.416;2023-12-14T00:03:47;100222.73;;;4.47;94.88
74790;BME280;63318;52.406;13.416;2023-12-14T00:06:16;100225.77;;;4.46;94.90
74790;BME280;63318;52.406;13.416;2023-12-14T00:08:44;100226.58;;;4.46;94.77
74790;BME280;63318;52.406;13.416;2023-12-14T00:11:12;100232.83;;;4.45;94.85
74790;BME280;63318;52.406;13.416;2023-12-14T00:13:40;100234.50;;;4.43;94.60
74790;BME280;63318;52.406;13.416;2023-12-14T00:16:09;100239.65;;;4.42;94.69
74790;BME280;63318;52.406;13.416;2023-12-14T00:18:38;100240.06;;;4.41;94.71
74790;BME280;63318;52.406;13.416;2023-12-14T00:21:07;100243.20;;;4.41;94.62
74790;BME280;63318;52.406;13.416;2023-12-14T00:23:36;100242.51;;;4.39;94.75
74790;BME280;63318;52.406;13.416;2023-12-14T00:26:05;100251.63;;;4.38;94.67
74790;BME280;63318;52.406;13.416;2023-12-14T00:28:33;100252.83;;;4.38;94.57
74790;BME280;63318;52.406;13.416;2023-12-14T00:31:01;100261.55;;;4.37;94.70
74790;BME280;63318;52.406;13.416;2023-12-14T00:33:29;100262.36;;;4.36;94.57
74790;BME280;63318;52.406;13.416;2023-12-14T00:35:57;100267.69;;;4.33;94.54
74790;BME280;63318;52.406;13.416;2023-12-14T00:38:26;100270.52;;;4.32;94.66
74790;BME280;63318;52.406;13.416;2023-12-14T00:40:54;100272.21;;;4.31;94.67
74790;BME280;63318;52.406;13.416;2023-12-14T00:43:22;100275.23;;;4.31;94.74
74790;BME280;63318;52.406;13.416;2023-12-14T00:45:51;100278.20;;;4.30;94.63
74790;BME280;63318;52.406;13.416;2023-12-14T00:48:19;100284.55;;;4.30;94.67
74790;BME280;63318;52.406;13.416;2023-12-14T00:50:47;100281.69;;;4.29;94.62
74790;BME280;63318;52.406;13.416;2023-12-14T00:53:15;100280.61;;;4.28;94.67
74790;BME280;63318;52.406;13.416;2023-12-14T00:55:44;100287.52;;;4.27;94.53
74790;BME280;63318;52.406;13.416;2023-12-14T00:58:12;100291.73;;;4.25;94.51
74790;BME280;63318;52.406;13.416;2023-12-14T01:00:40;100299.61;;;4.24;94.57
74790;BME280;63318;52.406;13.416;2023-12-14T01:03:09;100299.88;;;4.20;94.46
74790;BME280;63318;52.406;13.416;2023-12-14T01:05:37;100306.64;;;4.18;94.52
74790;BME280;63318;52.406;13.416;2023-12-14T01:08:06;100306.90;;;4.17;94.55
74790;BME280;63318;52.406;13.416;2023-12-14T01:10:34;100315.71;;;4.16;94.56
74790;BME280;63318;52.406;13.416;2023-12-14T01:13:03;100325.96;;;4.13;94.54
74790;BME280;63318;52.406;13.416;2023-12-14T01:15:31;100327.19;;;4.12;94.46
74790;BME280;63318;52.406;13.416;2023-12-14T01:17:59;100330.84;;;4.10;94.46
74790;BME280;63318;52.406;13.416;2023-12-14T01:20:27;100339.98;;;4.09;94.45
74790;BME280;63318;52.406;13.416;2023-12-14T01:22:56;100342.82;;;4.08;94.57
74790;BME280;63318;52.406;13.416;2023-12-14T01:25:24;100351.91;;;4.07;94.28
74790;BME280;63318;52.406;13.416;2023-12-14T01:27:52;100353.81;;;4.06;94.57
74790;BME280;63318;52.406;13.416;2023-12-14T01:30:20;100358.95;;;4.04;94.44
74790;BME280;63318;52.406;13.416;2023-12-14T01:32:49;100357.98;;;4.02;94.52
74790;BME280;63318;52.406;13.416;2023-12-14T01:35:17;100365.42;;;4.00;94.35
74790;BME280;63318;52.406;13.416;2023-12-14T01:37:45;100370.40;;;3.98;94.43
74790;BME280;63318;52.406;13.416;2023-12-14T01:40:14;100374.30;;;3.95;94.32
74790;BME280;63318;52.406;13.416;2023-12-14T01:42:44;100376.89;;;3.93;94.33
74790;BME280;63318;52.406;13.416;2023-12-14T01:45:12;100375.02;;;3.91;94.27
74790;BME280;63318;52.406;13.416;2023-12-14T01:47:40;100380.05;;;3.89;94.40
74790;BME280;63318;52.406;13.416;2023-12-14T01:50:09;100383.52;;;3.88;94.31
74790;BME280;63318;52.406;13.416;2023-12-14T01:52:38;100383.61;;;3.86;94.22
74790;BME280;63318;52.406;13.416;2023-12-14T01:55:08;100387.12;;;3.84;94.20
74790;BME280;63318;52.406;13.416;2023-12-14T01:57:36;100385.55;;;3.82;94.25
74790;BME280;63318;52.406;13.416;2023-12-14T02:00:05;100390.07;;;3.81;94.29
74790;BME280;63318;52.406;13.416;2023-12-14T02:02:34;100391.17;;;3.79;94.21
74790;BME280;63318;52.406;13.416;2023-12-14T02:05:03;100394.85;;;3.77;94.21
74790;BME280;63318;52.406;13.416;2023-12-14T02:07:31;100395.73;;;3.75;94.25
74790;BME280;63318;52.406;13.416;2023-12-14T02:10:00;100404.17;;;3.73;94.19
74790;BME280;63318;52.406;13.416;2023-12-14T02:12:28;100401.50;;;3.72;94.11
74790;BME280;63318;52.406;13.416;2023-12-14T02:14:57;100403.84;;;3.71;94.13
74790;BME280;63318;52.406;13.416;2023-12-14T02:17:25;100403.52;;;3.69;94.31
74790;BME280;63318;52.406;13.416;2023-12-14T02:19:53;100405.21;;;3.69;94.13
74790;BME280;63318;52.406;13.416;2023-12-14T02:22:21;100404.77;;;3.69;94.30
74790;BME280;63318;52.406;13.416;2023-12-14T02:24:50;100406.81;;;3.67;94.17
74790;BME280;63318;52.406;13.416;2023-12-14T02:27:18;100407.13;;;3.66;94.36
74790;BME280;63318;52.406;13.416;2023-12-14T02:29:46;100404.64;;;3.66;94.27
74790;BME280;63318;52.406;13.416;2023-12-14T02:32:14;100405.11;;;3.65;94.21
74790;BME280;63318;52.406;13.416;2023-12-14T02:34:42;100409.94;;;3.65;94.26
74790;BME280;63318;52.406;13.416;2023-12-14T02:37:11;100411.27;;;3.63;94.18
74790;BME280;63318;52.406;13.416;2023-12-14T02:39:39;100412.78;;;3.62;94.18
74790;BME280;63318;52.406;13.416;2023-12-14T02:42:07;100419.26;;;3.60;94.19
74790;BME280;63318;52.406;13.416;2023-12-14T02:44:35;100422.02;;;3.58;94.04
74790;BME280;63318;52.406;13.416;2023-12-14T02:47:04;100424.95;;;3.55;94.14
74790;BME280;63318;52.406;13.416;2023-12-14T02:49:32;100424.94;;;3.54;94.17
74790;BME280;63318;52.406;13.416;2023-12-14T02:52:00;100423.92;;;3.53;94.09
74790;BME280;63318;52.406;13.416;2023-12-14T02:54:28;100426.64;;;3.51;94.14
74790;BME280;63318;52.406;13.416;2023-12-14T02:56:57;100429.92;;;3.49;94.05
74790;BME280;63318;52.406;13.416;2023-12-14T02:59:25;100436.25;;;3.47;94.13
74790;BME280;63318;52.406;13.416;2023-12-14T03:01:53;100440.66;;;3.46;94.06
74790;BME280;63318;52.406;13.416;2023-12-14T03:04:21;100445.98;;;3.46;94.08
74790;BME280;63318;52.406;13.416;2023-12-14T03:06:49;100446.92;;;3.46;94.17
74790;BME280;63318;52.406;13.416;2023-12-14T03:09:17;100451.42;;;3.46;94.17
74790;BME280;63318;52.406;13.416;2023-12-14T03:11:46;100456.26;;;3.46;94.07
74790;BME280;63318;52.406;13.416;2023-12-14T03:14:14;100464.36;;;3.45;94.05
74790;BME280;63318;52.406;13.416;2023-12-14T03:16:42;100464.50;;;3.44;94.15
74790;BME280;63318;52.406;13.416;2023-12-14T03:19:10;100468.17;;;3.44;94.06
74790;BME280;63318;52.406;13.416;2023-12-14T03:21:39;100465.08;;;3.43;94.03
74790;BME280;63318;52.406;13.416;2023-12-14T03:24:07;100472.14;;;3.42;94.07
74790;BME280;63318;52.406;13.416;2023-12-14T03:26:35;100475.33;;;3.42;94.06
74790;BME280;63318;52.406;13.416;2023-12-14T03:29:03;100477.66;;;3.41;94.03
74790;BME280;63318;52.406;13.416;2023-12-14T03:31:32;100480.76;;;3.40;94.05
74790;BME280;63318;52.406;13.416;2023-12-14T03:34:00;100483.08;;;3.40;94.07
74790;BME280;63318;52.406;13.416;2023-12-14T03:36:28;100482.92;;;3.39;94.01
74790;BME280;63318;52.406;13.416;2023-12-14T03:38:56;100489.61;;;3.38;94.11
74790;BME280;63318;52.406;13.416;2023-12-14T03:41:24;100491.13;;;3.38;94.04
74790;BME280;63318;52.406;13.416;2023-12-14T03:43:52;100495.19;;;3.38;94.09
74790;BME280;63318;52.406;13.416;2023-12-14T03:46:21;100495.48;;;3.37;94.17
74790;BME280;63318;52.406;13.416;2023-12-14T03:48:49;100500.39;;;3.37;94.21
74790;BME280;63318;52.406;13.416;2023-12-14T03:51:20;100504.73;;;3.37;94.25
74790;BME280;63318;52.406;13.416;2023-12-14T03:53:48;100511.49;;;3.38;94.06
74790;BME280;63318;52.406;13.416;2023-12-14T03:56:17;100514.66;;;3.37;94.19
74790;BME280;63318;52.406;13.416;2023-12-14T03:58:45;100516.41;;;3.37;94.16
74790;BME280;63318;52.406;13.416;2023-12-14T04:01:18;100519.98;;;3.36;94.18
74790;BME280;63318;52.406;13.416;2023-12-14T04:03:47;100529.17;;;3.36;94.16
74790;BME280;63318;52.406;13.416;2023-12-14T04:06:15;100531.63;;;3.35;94.19
74790;BME280;63318;52.406;13.416;2023-12-14T04:08:43;100532.15;;;3.34;94.18
74790;BME280;63318;52.406;13.416;2023-12-14T04:11:11;100534.02;;;3.34;94.18
74790;BME280;63318;52.406;13.416;2023-12-14T04:13:40;100535.24;;;3.33;94.16
74790;BME280;63318;52.406;13.416;2023-12-14T04:16:09;100540.63;;;3.33;94.19
74790;BME280;63318;52.406;13.416;2023-12-14T04:18:37;100543.58;;;3.33;94.24
74790;BME280;63318;52.406;13.416;2023-12-14T04:21:06;100549.90;;;3.33;94.23
74790;BME280;63318;52.406;13.416;2023-12-14T04:23:34;100550.08;;;3.33;94.10
74790;BME280;63318;52.406;13.416;2023-12-14T04:26:02;100554.33;;;3.34;94.20
74790;BME280;63318;52.406;13.416;2023-12-14T04:28:30;100554.89;;;3.34;94.23
74790;BME280;63318;52.406;13.416;2023-12-14T04:30:59;100556.05;;;3.35;94.19
74790;BME280;63318;52.406;13.416;2023-12-14T04:33:27;100557.52;;;3.35;94.30
74790;BME280;63318;52.406;13.416;2023-12-14T04:35:55;100563.49;;;3.34;94.23
74790;BME280;63318;52.406;13.416;2023-12-14T04:38:23;100569.25;;;3.33;94.22
74790;BME280;63318;52.406;13.416;2023-12-14T04:40:51;100570.93;;;3.33;94.14
74790;BME280;63318;52.406;13.416;2023-12-14T04:43:20;100574.48;;;3.33;94.20
74790;BME280;63318;52.406;13.416;2023-12-14T04:45:48;100580.19;;;3.33;94.22
74790;BME280;63318;52.406;13.416;2023-12-14T04:48:16;100582.89;;;3.33;94.23
74790;BME280;63318;52.406;13.416;2023-12-14T04:50:44;100584.20;;;3.33;94.22
74790;BME280;63318;52.406;13.416;2023-12-14T04:53:12;100585.92;;;3.31;94.19
74790;BME280;63318;52.406;13.416;2023-12-14T04:55:41;100583.42;;;3.30;94.10
74790;BME280;63318;52.406;13.416;2023-12-14T04:58:09;100582.04;;;3.30;94.18
74790;BME280;63318;52.406;13.416;2023-12-14T05:00:37;100587.65;;;3.30;94.28
74790;BME280;63318;52.406;13.416;2023-12-14T05:03:05;100592.58;;;3.30;94.16
74790;BME280;63318;52.406;13.416;2023-12-14T05:05:33;100594.88;;;3.30;94.16
74790;BME280;63318;52.406;13.416;2023-12-14T05:08:02;100598.82;;;3.29;94.15
74790;BME280;63318;52.406;13.416;2023-12-14T05:10:30;100603.17;;;3.28;94.16
74790;BME280;63318;52.406;13.416;2023-12-14T05:12:58;100610.39;;;3.29;94.17
74790;BME280;63318;52.406;13.416;2023-12-14T05:15:26;100608.02;;;3.29;94.13
74790;BME280;63318;52.406;13.416;2023-12-14T05:17:54;100614.79;;;3.29;94.22
74790;BME280;63318;52.406;13.416;2023-12-14T05:20:23;100618.63;;;3.29;94.24
74790;BME280;63318;52.406;13.416;2023-12-14T05:22:51;100623.02;;;3.29;94.23
74790;BME280;63318;52.406;13.416;2023-12-14T05:25:19;100626.48;;;3.29;94.27
74790;BME280;63318;52.406;13.416;2023-12-14T05:27:47;100631.92;;;3.29;94.24
74790;BME280;63318;52.406;13.416;2023-12-14T05:30:16;100640.33;;;3.29;94.22
74790;BME280;63318;52.406;13.416;2023-12-14T05:32:44;100646.80;;;3.29;94.22
74790;BME280;63318;52.406;13.416;2023-12-14T05:35:12;100653.17;;;3.29;94.23
74790;BME280;63318;52.406;13.416;2023-12-14T05:37:41;100660.19;;;3.29;94.15
74790;BME280;63318;52.406;13.416;2023-12-14T05:40:11;100667.77;;;3.29;94.24
74790;BME280;63318;52.406;13.416;2023-12-14T05:42:39;100674.98;;;3.30;94.23
74790;BME280;63318;52.406;13.416;2023-12-14T05:45:09;100677.43;;;3.31;94.13
74790;BME280;63318;52.406;13.416;2023-12-14T05:47:38;100682.33;;;3.31;94.17
74790;BME280;63318;52.406;13.416;2023-12-14T05:50:08;100684.48;;;3.32;94.23
74790;BME280;63318;52.406;13.416;2023-12-14T05:52:36;100692.47;;;3.31;94.29
74790;BME280;63318;52.406;13.416;2023-12-14T05:55:06;100692.38;;;3.31;94.24
74790;BME280;63318;52.406;13.416;2023-12-14T05:57:35;100697.02;;;3.32;94.28
74790;BME280;63318;52.406;13.416;2023-12-14T06:00:04;100698.95;;;3.33;94.33
74790;BME280;63318;52.406;13.416;2023-12-14T06:02:32;100697.76;;;3.33;94.41
74790;BME280;63318;52.406;13.416;2023-12-14T06:05:00;100696.53;;;3.34;94.30
74790;BME280;63318;52.406;13.416;2023-12-14T06:07:28;100700.31;;;3.36;94.41
74790;BME280;63318;52.406;13.416;2023-12-14T06:09:57;100700.21;;;3.36;94.37
74790;BME280;63318;52.406;13.416;2023-12-14T06:12:25;100708.57;;;3.37;94.35
74790;BME280;63318;52.406;13.416;2023-12-14T06:14:53;100711.54;;;3.36;94.29
74790;BME280;63318;52.406;13.416;2023-12-14T06:17:21;100713.56;;;3.36;94.33
74790;BME280;63318;52.406;13.416;2023-12-14T06:19:50;100719.57;;;3.35;94.23
74790;BME280;63318;52.406;13.416;2023-12-14T06:22:18;100729.00;;;3.34;94.28
74790;BME280;63318;52.406;13.416;2023-12-14T06:24:46;100730.54;;;3.33;94.29
74790;BME280;63318;52.406;13.416;2023-12-14T06:27:14;100728.57;;;3.32;94.17
74790;BME280;63318;52.406;13.416;2023-12-14T06:29:43;100732.33;;;3.31;94.22
74790;BME280;63318;52.406;13.416;2023-12-14T06:32:11;100738.50;;;3.31;94.24
74790;BME280;63318;52.406;13.416;2023-12-14T06:34:39;100738.45;;;3.32;94.22
74790;BME280;63318;52.406;13.416;2023-12-14T06:37:07;100741.79;;;3.31;94.32
74790;BME280;63318;52.406;13.416;2023-12-14T06:39:36;100744.77;;;3.32;94.33
74790;BME280;63318;52.406;13.416;2023-12-14T06:42:04;100747.40;;;3.32;94.31
74790;BME280;63318;52.406;13.416;2023-12-14T06:44:32;100749.72;;;3.32;94.29
74790;BME280;63318;52.406;13.416;2023-12-14T06:47:01;100754.36;;;3.33;94.37
74790;BME280;63318;52.406;13.416;2023-12-14T06:49:29;100759.38;;;3.33;94.31
74790;BME280;63318;52.406;13.416;2023-12-14T06:51:57;100759.89;;;3.32;94.32
74790;BME280;63318;52.406;13.416;2023-12-14T06:54:25;100765.27;;;3.32;94.21
74790;BME280;63318;52.406;13.416;2023-12-14T06:56:54;100766.08;;;3.32;94.26
74790;BME280;63318;52.406;13.416;2023-12-14T06:59:22;100769.84;;;3.31;94.23
74790;BME280;63318;52.406;13.416;2023-12-14T07:01:50;100780.17;;;3.30;94.20
74790;BME280;63318;52.406;13.416;2023-12-14T07:04:18;100783.27;;;3.29;94.14
74790;BME280;63318;52.406;13.416;2023-12-14T07:06:52;100789.54;;;3.29;94.29
74790;BME280;63318;52.406;13.416;2023-12-14T07:09:21;100795.58;;;3.29;94.33
74790;BME280;63318;52.406;13.416;2023-12-14T07:11:49;100803.38;;;3.29;94.11
74790;BME280;63318;52.406;13.416;2023-12-14T07:14:17;100807.29;;;3.30;94.20
74790;BME280;63318;52.406;13.416;2023-12-14T07:16:45;100811.23;;;3.29;94.19
74790;BME280;63318;52.406;13.416;2023-12-14T07:19:13;100813.75;;;3.30;94.29
74790;BME280;63318;52.406;13.416;2023-12-14T07:21:42;100817.49;;;3.29;94.33
74790;BME280;63318;52.406;13.416;2023-12-14T07:24:10;100818.63;;;3.29;94.20
74790;BME280;63318;52.406;13.416;2023-12-14T07:26:38;100826.66;;;3.29;94.19
74790;BME280;63318;52.406;13.416;2023-12-14T07:29:06;100832.36;;;3.29;94.13
74790;BME280;63318;52.406;13.416;2023-12-14T07:31:35;100837.13;;;3.29;94.21
74790;BME280;63318;52.406;13.416;2023-12-14T07:34:03;100848.99;;;3.29;94.25
74790;BME280;63318;52.406;13.416;2023-12-14T07:36:31;100855.23;;;3.30;94.23
74790;BME280;63318;52.406;13.416;2023-12-14T07:38:59;100861.05;;;3.30;94.14
74790;BME280;63318;52.406;13.416;2023-12-14T07:41:27;100868.77;;;3.30;94.09
74790;BME280;63318;52.406;13.416;2023-12-14T07:43:56;100871.52;;;3.30;94.15
74790;BME280;63318;52.406;13.416;2023-12-14T07:46:24;100869.13;;;3.30;94.09
74790;BME280;63318;52.406;13.416;2023-12-14T07:48:52;100873.59;;;3.31;94.20
74790;BME280;63318;52.406;13.416;2023-12-14T07:51:21;100874.31;;;3.31;94.19
74790;BME280;63318;52.406;13.416;2023-12-14T07:53:49;100883.05;;;3.31;94.09
74790;BME280;63318;52.406;13.416;2023-12-14T07:56:17;100882.30;;;3.32;94.11
74790;BME280;63318;52.406;13.416;2023-12-14T07:58:45;100883.77;;;3.33;94.09
74790;BME280;63318;52.406;13.416;2023-12-14T08:01:13;100893.56;;;3.33;94.11
74790;BME280;63318;52.406;13.416;2023-12-14T08:03:42;100898.07;;;3.34;94.21
74790;BME280;63318;52.406;13.416;2023-12-14T08:06:10;100902.38;;;3.34;94.25
74790;BME280;63318;52.406;13.416;2023-12-14T08:08:38;100904.09;;;3.35;94.31
74790;BME280;63318;52.406;13.416;2023-12-14T08:11:06;100907.27;;;3.36;94.08
74790;BME280;63318;52.406;13.416;2023-12-14T08:13:35;100902.28;;;3.36;94.12
74790;BME280;63318;52.406;13.416;2023-12-14T08:16:03;100907.34;;;3.37;94.12
74790;BME280;63318;52.406;13.416;2023-12-14T08:18:31;100912.98;;;3.37;94.13
74790;BME280;63318;52.406;13.416;2023-12-14T08:21:00;100915.79;;;3.36;94.05
74790;BME280;63318;52.406;13.416;2023-12-14T08:23:28;100922.21;;;3.36;94.09
74790;BME280;63318;52.406;13.416;2023-12-14T08:25:56;100923.21;;;3.37;94.08
74790;BME280;63318;52.406;13.416;2023-12-14T08:28:24;100928.99;;;3.38;94.20
74790;BME280;63318;52.406;13.416;2023-12-14T08:30:53;100933.31;;;3.38;94.03
74790;BME280;63318;52.406;13.416;2023-12-14T08:33:21;100936.86;;;3.39;94.18
74790;BME280;63318;52.406;13.416;2023-12-14T08:35:49;100941.80;;;3.39;94.11
74790;BME280;63318;52.406;13.416;2023-12-14T08:38:18;100944.77;;;3.39;94.09
74790;BME280;63318;52.406;13.416;2023-12-14T08:40:46;100946.98;;;3.41;94.16
74790;BME280;63318;52.406;13.416;2023-12-14T08:43:14;100955.08;;;3.42;94.16
74790;BME280;63318;52.406;13.416;2023-12-14T08:45:42;100958.36;;;3.43;94.17
74790;BME280;63318;52.406;13.416;2023-12-14T08:48:11;100966.10;;;3.43;94.11
74790;BME280;63318;52.406;13.416;2023-12-14T08:50:39;100973.57;;;3.43;94.16
74790;BME280;63318;52.406;13.416;2023-12-14T08:53:07;100978.30;;;3.43;94.00
74790;BME280;63318;52.406;13.416;2023-12-14T08:55:35;100980.27;;;3.43;93.99
74790;BME280;63318;52.406;13.416;2023-12-14T08:58:04;100983.98;;;3.44;94.03
74790;BME280;63318;52.406;13.416;2023-12-14T09:00:32;100986.10;;;3.45;94.03
74790;BME280;63318;52.406;13.416;2023-12-14T09:03:00;100989.56;;;3.47;94.06
74790;BME280;63318;52.406;13.416;2023-12-14T09:05:28;100995.89;;;3.47;94.03
74790;BME280;63318;52.406;13.416;2023-12-14T09:07:56;101002.07;;;3.46;93.97
74790;BME280;63318;52.406;13.416;2023-12-14T09:10:25;101001.13;;;3.46;93.95
74790;BME280;63318;52.406;13.416;2023-12-14T09:12:53;101004.38;;;3.46;93.76
74790;BME280;63318;52.406;13.416;2023-12-14T09:15:21;101004.33;;;3.47;93.82
74790;BME280;63318;52.406;13.416;2023-12-14T09:17:49;101012.20;;;3.47;93.93
74790;BME280;63318;52.406;13.416;2023-12-14T09:20:18;101013.72;;;3.47;93.83
74790;BME280;63318;52.406;13.416;2023-12-14T09:22:46;101020.90;;;3.47;93.90
74790;BME280;63318;52.406;13.416;2023-12-14T09:25:14;101023.43;;;3.48;93.80
74790;BME280;63318;52.406;13.416;2023-12-14T09:27:42;101028.41;;;3.47;93.86
74790;BME280;63318;52.406;13.416;2023-12-14T09:30:12;101031.12;;;3.48;93.84
74790;BME280;63318;52.406;13.416;2023-12-14T09:32:41;101037.70;;;3.47;93.93
74790;BME280;63318;52.406;13.416;2023-12-14T09:35:10;101039.80;;;3.48;93.90
74790;BME280;63318;52.406;13.416;2023-12-14T09:37:39;101043.44;;;3.50;93.81
74790;BME280;63318;52.406;13.416;2023-12-14T09:40:09;101046.52;;;3.50;93.82
74790;BME280;63318;52.406;13.416;2023-12-14T09:42:39;101051.30;;;3.50;93.84
74790;BME280;63318;52.406;13.416;2023-12-14T09:45:09;101054.89;;;3.50;93.83
74790;BME280;63318;52.406;13.416;2023-12-14T09:47:38;101055.89;;;3.51;93.94
74790;BME280;63318;52.406;13.416;2023-12-14T09:50:08;101062.40;;;3.51;93.81
74790;BME280;63318;52.406;13.416;2023-12-14T09:52:37;101063.96;;;3.53;93.74
74790;BME280;63318;52.406;13.416;2023-12-14T09:55:06;101068.77;;;3.52;93.77
74790;BME280;63318;52.406;13.416;2023-12-14T09:57:34;101073.52;;;3.52;93.78
74790;BME280;63318;52.406;13.416;2023-12-14T10:00:03;101074.32;;;3.53;93.81
74790;BME280;63318;52.406;13.416;2023-12-14T10:02:31;101071.55;;;3.54;93.72
74790;BME280;63318;52.406;13.416;2023-12-14T10:04:59;101073.77;;;3.55;93.67
74790;BME280;63318;52.406;13.416;2023-12-14T10:07:27;101074.19;;;3.56;93.85
74790;BME280;63318;52.406;13.416;2023-12-14T10:09:56;101077.20;;;3.56;93.66
74790;BME280;63318;52.406;13.416;2023-12-14T10:12:51;101079.85;;;3.57;93.71
74790;BME280;63318;52.406;13.416;2023-12-14T10:15:20;101079.95;;;3.56;93.67
74790;BME280;63318;52.406;13.416;2023-12-14T10:17:48;101086.88;;;3.56;93.74
74790;BME280;63318;52.406;13.416;2023-12-14T10:20:21;101089.75;;;3.57;93.67
74790;BME280;63318;52.406;13.416;2023-12-14T10:22:50;101089.73;;;3.56;93.67
74790;BME280;63318;52.406;13.416;2023-12-14T10:25:20;101093.63;;;3.57;93.73
74790;BME280;63318;52.406;13.416;2023-12-14T10:27:50;101094.72;;;3.59;93.70
74790;BME280;63318;52.406;13.416;2023-12-14T10:30:18;101094.88;;;3.60;93.74
74790;BME280;63318;52.406;13.416;2023-12-14T10:32:47;101094.16;;;3.61;93.72
74790;BME280;63318;52.406;13.416;2023-12-14T10:35:16;101096.52;;;3.62;93.51
74790;BME280;63318;52.406;13.416;2023-12-14T10:37:44;101095.89;;;3.61;93.48
74790;BME280;63318;52.406;13.416;2023-12-14T10:40:15;101100.15;;;3.62;93.51
74790;BME280;63318;52.406;13.416;2023-12-14T10:42:44;101109.44;;;3.63;93.49
74790;BME280;63318;52.406;13.416;2023-12-14T10:45:13;101115.73;;;3.64;93.50
74790;BME280;63318;52.406;13.416;2023-12-14T10:47:44;101119.76;;;3.64;93.54
74790;BME280;63318;52.406;13.416;2023-12-14T10:50:13;101124.30;;;3.66;93.54
74790;BME280;63318;52.406;13.416;2023-12-14T10:52:42;101128.81;;;3.68;93.33
74790;BME280;63318;52.406;13.416;2023-12-14T10:55:14;101131.92;;;3.71;93.30
74790;BME280;63318;52.406;13.416;2023-12-14T10:57:41;101131.34;;;3.71;93.32
74790;BME280;63318;52.406;13.416;2023-12-14T11:00:11;101133.19;;;3.72;93.37
74790;BME280;63318;52.406;13.416;2023-12-14T11:02:46;101137.19;;;3.75;93.49
74790;BME280;63318;52.406;13.416;2023-12-14T11:05:17;101138.10;;;3.78;93.51
74790;BME280;63318;52.406;13.416;2023-12-14T11:07:50;101139.69;;;3.79;93.44
74790;BME280;63318;52.406;13.416;2023-12-14T11:10:22;101145.20;;;3.81;93.35
74790;BME280;63318;52.406;13.416;2023-12-14T11:12:59;101147.13;;;3.81;93.29
74790;BME280;63318;52.406;13.416;2023-12-14T11:15:29;101149.54;;;3.81;93.33
74790;BME280;63318;52.406;13.416;2023-12-14T11:18:25;101152.95;;;3.81;93.33
74790;BME280;63318;52.406;13.416;2023-12-14T11:20:58;101149.61;;;3.82;93.32
74790;BME280;63318;52.406;13.416;2023-12-14T11:23:38;101146.86;;;3.83;93.28
74790;BME280;63318;52.406;13.416;2023-12-14T11:26:09;101148.41;;;3.85;93.19
74790;BME280;63318;52.406;13.416;2023-12-14T11:28:38;101149.97;;;3.87;93.36
74790;BME280;63318;52.406;13.416;2023-12-14T11:31:11;101155.28;;;3.88;93.28
74790;BME280;63318;52.406;13.416;2023-12-14T11:33:39;101158.61;;;3.89;93.35
74790;BME280;63318;52.406;13.416;2023-12-14T11:36:09;101166.47;;;3.90;93.22
74790;BME280;63318;52.406;13.416;2023-12-14T11:38:37;101165.76;;;3.91;93.19
74790;BME280;63318;52.406;13.416;2023-12-14T11:41:06;101168.52;;;3.94;93.22
74790;BME280;63318;52.406;13.416;2023-12-14T11:43:43;101166.19;;;3.96;93.28
74790;BME280;63318;52.406;13.416;2023-12-14T11:46:12;101162.41;;;3.98;93.16
74790;BME280;63318;52.406;13.416;2023-12-14T11:48:40;101169.12;;;4.00;93.08
74790;BME280;63318;52.406;13.416;2023-12-14T11:51:09;101173.41;;;4.02;93.25
74790;BME280;63318;52.406;13.416;2023-12-14T11:53:38;101177.68;;;4.02;93.13
74790;BME280;63318;52.406;13.416;2023-12-14T11:56:07;101182.68;;;4.03;92.96
74790;BME280;63318;52.406;13.416;2023-12-14T11:58:36;101187.36;;;4.04;93.12
74790;BME280;63318;52.406;13.416;2023-12-14T12:01:14;101191.59;;;4.04;93.02
74790;BME280;63318;52.406;13.416;2023-12-14T12:03:43;101195.36;;;4.03;92.90
74790;BME280;63318;52.406;13.416;2023-12-14T12:06:21;101199.80;;;4.03;92.91
74790;BME280;63318;52.406;13.416;2023-12-14T12:08:49;101202.25;;;4.04;92.98
74790;BME280;63318;52.406;13.416;2023-12-14T12:11:19;101211.96;;;4.05;92.96
74790;BME280;63318;52.406;13.416;2023-12-14T12:13:52;101216.73;;;4.06;92.92
74790;BME280;63318;52.406;13.416;2023-12-14T12:16:21;101221.09;;;4.08;92.91
74790;BME280;63318;52.406;13.416;2023-12-14T12:18:49;101219.52;;;4.08;92.85
74790;BME280;63318;52.406;13.416;2023-12-14T12:21:17;101219.52;;;4.10;92.98
74790;BME280;63318;52.406;13.416;2023-12-14T12:23:46;101218.95;;;4.11;93.02
74790;BME280;63318;52.406;13.416;2023-12-14T12:26:14;101219.96;;;4.13;93.05
74790;BME280;63318;52.406;13.416;2023-12-14T12:28:43;101222.40;;;4.14;93.14
74790;BME280;63318;52.406;13.416;2023-12-14T12:31:11;101222.98;;;4.15;93.09
74790;BME280;63318;52.406;13.416;2023-12-14T12:33:39;101228.06;;;4.16;93.09
74790;BME280;63318;52.406;13.416;2023-12-14T12:36:08;101225.68;;;4.18;92.99
74790;BME280;63318;52.406;13.416;2023-12-14T12:38:37;101227.02;;;4.18;92.99
74790;BME280;63318;52.406;13.416;2023-12-14T12:41:05;101232.47;;;4.19;92.95
74790;BME280;63318;52.406;13.416;2023-12-14T12:43:33;101238.44;;;4.19;92.96
74790;BME280;63318;52.406;13.416;2023-12-14T12:46:01;101240.65;;;4.19;92.87
74790;BME280;63318;52.406;13.416;2023-12-14T12:48:30;101240.48;;;4.19;92.85
74790;BME280;63318;52.406;13.416;2023-12-14T12:50:58;101246.14;;;4.19;92.72
74790;BME280;63318;52.406;13.416;2023-12-14T12:53:26;101250.84;;;4.20;92.71
74790;BME280;63318;52.406;13.416;2023-12-14T12:55:54;101249.90;;;4.20;92.65
74790;BME280;63318;52.406;13.416;2023-12-14T12:58:23;101252.68;;;4.21;92.66